createdAt,value
2022-09-28T00:00:02.982Z,84.2
2022-09-28T00:03:03.213Z,84.2
2022-09-28T00:06:02.925Z,84.2
2022-09-28T00:09:02.943Z,84.2
2022-09-28T00:12:02.941Z,84.2
2022-09-28T00:15:02.950Z,83.8
2022-09-28T00:18:02.938Z,83.8
2022-09-28T00:21:02.892Z,83.7
2022-09-28T00:24:02.954Z,83.7
2022-09-28T00:27:03.009Z,83.7
2022-09-28T00:30:02.951Z,83.7
2022-09-28T00:33:02.903Z,83.7
2022-09-28T00:36:02.955Z,83.7
2022-09-28T00:39:02.941Z,83.7
2022-09-28T00:42:02.966Z,83.7
2022-09-28T00:45:02.950Z,83.7
2022-09-28T00:48:02.922Z,83.7
2022-09-28T00:51:02.888Z,83.7
2022-09-28T00:54:02.934Z,83.7
2022-09-28T00:57:02.875Z,83.7
2022-09-28T01:00:03.030Z,83.7
2022-09-28T01:03:02.960Z,83.7
2022-09-28T01:06:02.929Z,83.7
2022-09-28T01:09:03.007Z,83.7
2022-09-28T01:12:02.898Z,82.8
2022-09-28T01:15:02.959Z,82.8
2022-09-28T01:18:02.891Z,82.6
2022-09-28T01:21:02.923Z,82.6
2022-09-28T01:24:02.920Z,82.6
2022-09-28T01:27:02.959Z,82.3
2022-09-28T01:30:02.929Z,82.3
2022-09-28T01:33:02.978Z,82.3
2022-09-28T01:36:02.917Z,82.3
2022-09-28T01:39:02.968Z,82.3
2022-09-28T01:42:02.911Z,82.3
2022-09-28T01:45:02.937Z,82.3
2022-09-28T01:48:02.902Z,82.3
2022-09-28T01:51:02.947Z,81.7
2022-09-28T01:54:02.929Z,81.7
2022-09-28T01:57:02.921Z,81.7
2022-09-28T02:00:02.976Z,81.7
2022-09-28T02:03:02.924Z,81.7
2022-09-28T02:06:02.974Z,81.7
2022-09-28T02:09:02.916Z,81.7
2022-09-28T02:12:02.900Z,81.7
2022-09-28T02:15:02.936Z,82.3
2022-09-28T02:18:03.106Z,82.3
2022-09-28T02:21:03.010Z,82.3
2022-09-28T02:24:03.032Z,82.3
2022-09-28T02:27:02.930Z,82.7
2022-09-28T02:30:03.011Z,82.7
2022-09-28T02:33:02.915Z,82.7
2022-09-28T02:36:02.925Z,82.7
2022-09-28T02:39:02.925Z,82.7
2022-09-28T02:42:02.932Z,82.7
2022-09-28T02:45:02.908Z,82.7
2022-09-28T02:48:02.973Z,82.7
2022-09-28T02:51:02.931Z,82.7
2022-09-28T02:54:02.952Z,82.7
2022-09-28T02:57:02.897Z,82.7
2022-09-28T03:00:02.982Z,82.7
2022-09-28T03:03:02.903Z,82.7
2022-09-28T03:06:02.930Z,82.7
2022-09-28T03:09:02.918Z,83.5
2022-09-28T03:12:03.015Z,83.5
2022-09-28T03:15:02.997Z,83.6
2022-09-28T03:18:02.924Z,83.6
2022-09-28T03:21:02.911Z,83.6
2022-09-28T03:24:02.968Z,83.6
2022-09-28T03:27:02.893Z,83.6
2022-09-28T03:30:02.984Z,83.6
2022-09-28T03:33:03.024Z,83.6
2022-09-28T03:36:02.932Z,83.6
2022-09-28T03:39:02.913Z,83.6
2022-09-28T03:42:02.971Z,83.6
2022-09-28T03:45:02.929Z,83.6
2022-09-28T03:48:02.992Z,83.6
2022-09-28T03:51:02.938Z,83.6
2022-09-28T03:54:02.921Z,83.6
2022-09-28T03:57:02.891Z,83.6
2022-09-28T04:00:02.994Z,83.6
2022-09-28T04:03:02.944Z,83.6
2022-09-28T04:06:02.941Z,84.8
2022-09-28T04:09:02.919Z,84.8
2022-09-28T04:12:06.954Z,84.8
2022-09-28T04:15:02.935Z,85
2022-09-28T04:18:02.995Z,85
2022-09-28T04:21:02.963Z,85
2022-09-28T04:24:02.940Z,85
2022-09-28T04:27:02.960Z,85
2022-09-28T04:30:02.946Z,85
2022-09-28T04:33:02.938Z,85
2022-09-28T04:36:02.939Z,85
2022-09-28T04:39:02.908Z,85.5
2022-09-28T04:42:02.925Z,85.5
2022-09-28T04:45:02.932Z,85.5
2022-09-28T04:48:02.954Z,85.5
2022-09-28T04:51:02.974Z,85.5
2022-09-28T04:54:02.917Z,85.5
2022-09-28T04:57:02.945Z,85.5
2022-09-28T05:00:02.975Z,85.5
2022-09-28T05:03:02.945Z,85.5
2022-09-28T05:06:02.934Z,85.5
2022-09-28T05:09:02.940Z,85.5
2022-09-28T05:12:02.902Z,86.1
2022-09-28T05:15:03.027Z,86.1
2022-09-28T05:18:02.977Z,86.1
2022-09-28T05:21:02.982Z,86.1
2022-09-28T05:24:03.049Z,86.1
2022-09-28T05:27:02.972Z,86.1
2022-09-28T05:30:03.136Z,86.1
2022-09-28T05:33:02.973Z,86.1
2022-09-28T05:36:04.291Z,86.1
2022-09-28T05:39:02.981Z,86.1
2022-09-28T05:42:02.922Z,86.1
2022-09-28T05:45:02.968Z,86.1
2022-09-28T05:48:03.038Z,86.1
2022-09-28T05:51:02.928Z,86.1
2022-09-28T05:54:08.607Z,86.1
2022-09-28T05:57:03.023Z,86.1
2022-09-28T06:00:03.020Z,86.1
2022-09-28T06:03:08.623Z,86.1
2022-09-28T06:06:02.966Z,86.6
2022-09-28T06:09:02.946Z,86.6
2022-09-28T06:12:03.008Z,86.6
2022-09-28T06:15:02.983Z,86.6
2022-09-28T06:18:02.946Z,86.6
2022-09-28T06:21:03.008Z,86.6
2022-09-28T06:24:02.962Z,86.6
2022-09-28T06:27:02.953Z,86.6
2022-09-28T06:30:03.100Z,86.6
2022-09-28T06:33:02.941Z,86.6
2022-09-28T06:36:02.957Z,86.6
2022-09-28T06:39:03.052Z,86.6
2022-09-28T06:42:02.963Z,86.6
2022-09-28T06:45:02.958Z,86.6
2022-09-28T06:48:02.953Z,86.6
2022-09-28T06:51:02.946Z,86.6
2022-09-28T06:54:02.958Z,86.6
2022-09-28T06:57:02.941Z,86.6
2022-09-28T07:00:03.155Z,86.6
2022-09-28T07:03:02.979Z,88.2
2022-09-28T07:06:03.036Z,88.2
2022-09-28T07:09:33.538Z,88.2
2022-09-28T07:12:03.011Z,88.2
2022-09-28T07:15:02.992Z,88.2
2022-09-28T07:18:06.213Z,88.2
2022-09-28T07:21:03.021Z,88.2
2022-09-28T07:24:02.968Z,88.2
2022-09-28T07:27:02.938Z,88.2
2022-09-28T07:30:03.042Z,88.3
2022-09-28T07:33:02.942Z,88.3
2022-09-28T07:36:03.040Z,88.3
2022-09-28T07:39:03.006Z,88.3
2022-09-28T07:42:05.462Z,88.3
2022-09-28T07:45:02.978Z,88.3
2022-09-28T07:48:03.195Z,88.3
2022-09-28T07:51:02.993Z,88.3
2022-09-28T07:54:02.980Z,88.3
2022-09-28T07:57:03.001Z,88.3
2022-09-28T08:00:03.046Z,88.3
2022-09-28T08:03:02.950Z,88.9
2022-09-28T08:06:02.975Z,88.9
2022-09-28T08:09:03.063Z,88.9
2022-09-28T08:12:02.995Z,88.9
2022-09-28T08:15:03.012Z,88.9
2022-09-28T08:18:05.386Z,88.9
2022-09-28T08:21:02.963Z,88.5
2022-09-28T08:24:02.997Z,88.5
2022-09-28T08:27:03.052Z,88.5
2022-09-28T08:30:03.065Z,88.5
2022-09-28T08:33:02.946Z,88.5
2022-09-28T08:36:02.934Z,88.5
2022-09-28T08:39:03.056Z,88.5
2022-09-28T08:42:02.997Z,88.5
2022-09-28T08:45:02.997Z,88.5
2022-09-28T08:48:02.963Z,88.5
2022-09-28T08:51:02.990Z,88.4
2022-09-28T08:54:03.134Z,88.4
2022-09-28T08:57:02.982Z,88.7
2022-09-28T09:00:03.079Z,88.7
2022-09-28T09:03:03.051Z,88.7
2022-09-28T09:06:02.941Z,88.7
2022-09-28T09:09:02.978Z,88.7
2022-09-28T09:12:02.984Z,88.7
2022-09-28T09:15:03.055Z,88.7
2022-09-28T09:18:03.028Z,88.7
2022-09-28T09:21:02.992Z,88.7
2022-09-28T09:24:02.943Z,88.7
2022-09-28T09:27:02.989Z,88.8
2022-09-28T09:30:02.989Z,88.8
2022-09-28T09:33:02.975Z,88.8
2022-09-28T09:36:02.913Z,88.8
2022-09-28T09:39:02.981Z,88.8
2022-09-28T09:42:03.267Z,88.8
2022-09-28T09:45:03.043Z,88.8
2022-09-28T09:48:03.047Z,88.8
2022-09-28T09:51:03.044Z,88.8
2022-09-28T09:54:02.989Z,88.8
2022-09-28T09:57:02.980Z,86.8
2022-09-28T10:00:03.140Z,86.8
2022-09-28T10:03:03.167Z,87.3
2022-09-28T10:06:02.999Z,87.3
2022-09-28T10:09:03.078Z,87.3
2022-09-28T10:12:02.996Z,87.3
2022-09-28T10:15:03.019Z,87.3
2022-09-28T10:18:02.927Z,87.3
2022-09-28T10:21:03.086Z,87.3
2022-09-28T10:24:03.065Z,87.3
2022-09-28T10:27:03.019Z,87.3
2022-09-28T10:30:02.991Z,87.3
2022-09-28T10:33:03.044Z,87.3
2022-09-28T10:36:02.954Z,87.3
2022-09-28T10:39:03.040Z,87.3
2022-09-28T10:42:03.009Z,87.3
2022-09-28T10:45:03.028Z,87.2
2022-09-28T10:48:02.995Z,87.2
2022-09-28T10:51:03.102Z,87
2022-09-28T10:54:03.013Z,87
2022-09-28T10:57:02.965Z,87
2022-09-28T11:00:02.973Z,87
2022-09-28T11:03:03.157Z,87
2022-09-28T11:06:02.999Z,87
2022-09-28T11:09:03.113Z,87
2022-09-28T11:12:02.959Z,87
2022-09-28T11:15:02.984Z,87
2022-09-28T11:18:02.987Z,87
2022-09-28T11:21:02.991Z,87
2022-09-28T11:24:02.976Z,87
2022-09-28T11:27:03.168Z,87
2022-09-28T11:30:03.005Z,87
2022-09-28T11:33:02.967Z,87
2022-09-28T11:36:02.981Z,87
2022-09-28T11:39:02.995Z,87
2022-09-28T11:42:03.031Z,87
2022-09-28T11:48:02.969Z,86.4
2022-09-28T11:51:02.986Z,86.4
2022-09-28T11:54:02.989Z,86.4
2022-09-28T11:57:02.986Z,86
2022-09-28T12:00:03.099Z,86
2022-09-28T12:03:03.459Z,86
2022-09-28T12:06:03.070Z,86
2022-09-28T12:09:03.021Z,86
2022-09-28T12:12:02.951Z,86
2022-09-28T12:15:03.010Z,86
2022-09-28T12:18:03.187Z,86
2022-09-28T12:21:07.632Z,86
2022-09-28T12:24:03.000Z,86
2022-09-28T12:27:02.960Z,85.3
2022-09-28T12:30:03.055Z,85.3
2022-09-28T12:33:03.038Z,85.3
2022-09-28T12:36:02.916Z,85.3
2022-09-28T12:39:53.905Z,85.3
2022-09-28T12:42:02.913Z,85.3
2022-09-28T12:45:02.980Z,83.2
2022-09-28T12:48:02.979Z,83.2
2022-09-28T12:51:03.646Z,83.2
2022-09-28T12:54:03.015Z,83.2
2022-09-28T12:57:02.991Z,83.2
2022-09-28T13:00:03.323Z,83.2
2022-09-28T13:03:03.171Z,83.2
2022-09-28T13:06:02.996Z,83.2
2022-09-28T13:09:03.075Z,83.2
2022-09-28T13:12:03.013Z,83.2
2022-09-28T13:15:03.067Z,81
2022-09-28T13:18:03.029Z,81
2022-09-28T13:21:02.986Z,81
2022-09-28T13:24:32.023Z,81
2022-09-28T13:27:02.948Z,81
2022-09-28T13:30:03.598Z,81
2022-09-28T13:33:03.004Z,81
2022-09-28T13:36:02.961Z,81
2022-09-28T13:39:03.045Z,81.6
2022-09-28T13:42:02.957Z,81.6
2022-09-28T13:45:02.979Z,81.6
2022-09-28T13:48:02.982Z,81.6
2022-09-28T13:51:03.051Z,81.6
2022-09-28T13:54:02.963Z,81.6
2022-09-28T13:57:03.036Z,81.6
2022-09-28T14:00:03.003Z,81.6
2022-09-28T14:03:03.173Z,81.6
2022-09-28T14:06:03.050Z,81.6
2022-09-28T14:09:03.046Z,81.6
2022-09-28T14:12:03.058Z,81.6
2022-09-28T14:15:03.039Z,78.5
2022-09-28T14:18:03.034Z,78.5
2022-09-28T14:21:03.004Z,78.5
2022-09-28T14:24:02.957Z,78.5
2022-09-28T14:27:02.954Z,78.5
2022-09-28T14:30:03.041Z,78.5
2022-09-28T14:33:02.959Z,78.5
2022-09-28T14:36:02.967Z,78.5
2022-09-28T14:39:03.005Z,79.3
2022-09-28T14:42:02.940Z,78.9
2022-09-28T14:45:09.406Z,78.9
2022-09-28T14:48:03.098Z,78.9
2022-09-28T14:51:02.987Z,78.9
2022-09-28T14:54:02.963Z,78.9
2022-09-28T14:57:03.036Z,78.9
2022-09-28T15:00:03.077Z,78.9
2022-09-28T15:03:02.951Z,78.9
2022-09-28T15:06:02.966Z,78.9
2022-09-28T15:09:03.005Z,78.9
2022-09-28T15:12:02.909Z,78.9
2022-09-28T15:15:03.040Z,78.9
2022-09-28T15:18:03.026Z,73.5
2022-09-28T15:21:03.014Z,73.5
2022-09-28T15:24:02.960Z,73.5
2022-09-28T15:27:03.028Z,73.5
2022-09-28T15:30:03.017Z,73.5
2022-09-28T15:33:02.980Z,77
2022-09-28T15:36:02.970Z,77
2022-09-28T15:39:03.104Z,77
2022-09-28T15:42:02.926Z,77
2022-09-28T15:45:03.019Z,77
2022-09-28T15:48:02.984Z,77
2022-09-28T15:51:02.936Z,77
2022-09-28T15:54:03.020Z,77.5
2022-09-28T15:57:02.998Z,77.5
2022-09-28T16:00:03.007Z,77.5
2022-09-28T16:03:03.281Z,77.5
2022-09-28T16:06:02.949Z,77.5
2022-09-28T16:09:03.012Z,77.5
2022-09-28T16:12:03.005Z,79.4
2022-09-28T16:15:02.989Z,79.4
2022-09-28T16:18:03.063Z,79.4
2022-09-28T16:21:03.000Z,79.4
2022-09-28T16:24:03.010Z,79.4
2022-09-28T16:27:02.941Z,79.4
2022-09-28T16:30:03.153Z,79.4
2022-09-28T16:33:02.912Z,78.6
2022-09-28T16:36:02.956Z,77.9
2022-09-28T16:39:03.020Z,77.9
2022-09-28T16:42:02.959Z,77.9
2022-09-28T16:45:03.010Z,77.9
2022-09-28T16:48:02.899Z,77.9
2022-09-28T16:51:03.012Z,77.9
2022-09-28T16:54:02.978Z,77.9
2022-09-28T16:57:03.086Z,78.4
2022-09-28T17:00:03.031Z,78.4
2022-09-28T17:03:03.288Z,78.4
2022-09-28T17:06:02.939Z,78.4
2022-09-28T17:09:02.981Z,78.4
2022-09-28T17:12:02.990Z,78.4
2022-09-28T17:15:02.943Z,78.4
2022-09-28T17:18:02.934Z,78.4
2022-09-28T17:21:02.940Z,78.4
2022-09-28T17:24:02.914Z,78.4
2022-09-28T17:27:02.988Z,78.4
2022-09-28T17:30:02.989Z,78.4
2022-09-28T17:33:02.899Z,80.7
2022-09-28T17:36:03.108Z,80.7
2022-09-28T17:39:02.974Z,80.7
2022-09-28T17:42:02.884Z,80.7
2022-09-28T17:45:02.974Z,80.7
2022-09-28T17:48:02.903Z,80.7
2022-09-28T17:51:02.919Z,80.7
2022-09-28T17:54:02.914Z,80.7
2022-09-28T17:57:03.037Z,80.7
2022-09-28T18:00:02.959Z,80.7
2022-09-28T18:03:03.149Z,80.7
2022-09-28T18:06:02.972Z,80.7
2022-09-28T18:09:02.939Z,80.7
2022-09-28T18:12:02.925Z,80.7
2022-09-28T18:15:02.956Z,80.7
2022-09-28T18:18:02.951Z,80.7
2022-09-28T18:21:02.970Z,80.7
2022-09-28T18:24:02.966Z,81.2
2022-09-28T18:27:02.970Z,81.2
2022-09-28T18:30:02.965Z,81.2
2022-09-28T18:33:02.892Z,81.2
2022-09-28T18:36:03.039Z,80.8
2022-09-28T18:39:03.118Z,80.8
2022-09-28T18:42:02.934Z,80.8
2022-09-28T18:45:02.987Z,80.8
2022-09-28T18:48:02.961Z,80.8
2022-09-28T18:51:02.966Z,80.8
2022-09-28T18:54:02.972Z,80.8
2022-09-28T18:57:02.952Z,80.8
2022-09-28T19:00:02.920Z,80.8
2022-09-28T19:03:03.614Z,80.8
2022-09-28T19:06:03.059Z,80.8
2022-09-28T19:09:03.003Z,80.8
2022-09-28T19:12:02.912Z,80.8
2022-09-28T19:15:02.906Z,80.8
2022-09-28T19:18:02.986Z,80.8
2022-09-28T19:21:03.005Z,81.5
2022-09-28T19:24:02.934Z,81.5
2022-09-28T19:27:02.929Z,81.5
2022-09-28T19:30:02.928Z,81.5
2022-09-28T19:33:02.914Z,81.5
2022-09-28T19:36:02.979Z,81.5
2022-09-28T19:39:02.930Z,81.5
2022-09-28T19:42:03.033Z,81.5
2022-09-28T19:45:02.953Z,81.5
2022-09-28T19:48:02.943Z,81.5
2022-09-28T19:51:02.898Z,81.5
2022-09-28T19:54:02.963Z,81.5
2022-09-28T19:57:03.013Z,81.5
2022-09-28T20:00:06.234Z,81.5
2022-09-28T20:03:03.187Z,81.5
2022-09-28T20:06:02.986Z,81.6
2022-09-28T20:09:02.960Z,81.6
2022-09-28T20:12:02.894Z,81.5
2022-09-28T20:15:03.021Z,81.5
2022-09-28T20:18:03.116Z,81.5
2022-09-28T20:21:02.917Z,81.5
2022-09-28T20:24:02.925Z,81.5
2022-09-28T20:27:02.949Z,81.5
2022-09-28T20:30:02.895Z,81.5
2022-09-28T20:33:02.934Z,81.5
2022-09-28T20:36:02.911Z,81.5
2022-09-28T20:39:02.945Z,81.5
2022-09-28T20:42:02.925Z,81.5
2022-09-28T20:45:03.130Z,81.5
2022-09-28T20:48:02.942Z,81.5
2022-09-28T20:51:02.920Z,81.5
2022-09-28T20:54:02.973Z,81.5
2022-09-28T20:57:02.954Z,81.2
2022-09-28T21:00:03.015Z,81.2
2022-09-28T21:03:03.230Z,81
2022-09-28T21:06:03.072Z,81
2022-09-28T21:09:02.940Z,81
2022-09-28T21:12:02.928Z,81
2022-09-28T21:15:08.445Z,81
2022-09-28T21:18:02.949Z,81
2022-09-28T21:21:02.914Z,81
2022-09-28T21:24:02.994Z,81
2022-09-28T21:27:02.929Z,81
2022-09-28T21:30:02.958Z,81
2022-09-28T21:33:02.926Z,81
2022-09-28T21:36:02.918Z,81
2022-09-28T21:39:05.991Z,81
2022-09-28T21:42:02.946Z,81
2022-09-28T21:45:02.919Z,81
2022-09-28T21:48:02.890Z,81
2022-09-28T21:51:02.923Z,81
2022-09-28T21:54:02.934Z,81
2022-09-28T21:57:02.876Z,81
2022-09-28T22:00:03.147Z,81
2022-09-28T22:03:03.071Z,81
2022-09-28T22:06:02.923Z,81
2022-09-28T22:09:02.984Z,81
2022-09-28T22:12:02.923Z,81
2022-09-28T22:15:02.908Z,81
2022-09-28T22:18:02.919Z,81
2022-09-28T22:21:02.919Z,81
2022-09-28T22:24:03.018Z,81
2022-09-28T22:27:02.961Z,81
2022-09-28T22:30:02.958Z,81
2022-09-28T22:33:02.975Z,81
2022-09-28T22:36:02.920Z,81
2022-09-28T22:39:02.966Z,81
2022-09-28T22:42:02.974Z,81
2022-09-28T22:45:02.932Z,81
2022-09-28T22:48:02.899Z,81.4
2022-09-28T22:51:02.899Z,81.4
2022-09-28T22:54:02.925Z,81.4
2022-09-28T22:57:02.957Z,81.4
2022-09-28T23:00:02.979Z,81.4
2022-09-28T23:03:03.096Z,81.4
2022-09-28T23:06:06.875Z,81.4
2022-09-28T23:09:02.979Z,81.4
2022-09-28T23:12:02.938Z,81.4
2022-09-28T23:15:02.960Z,81.4
2022-09-28T23:18:02.946Z,81.4
2022-09-28T23:21:02.908Z,81.4
2022-09-28T23:24:02.968Z,81.4
2022-09-28T23:27:02.925Z,81.4
2022-09-28T23:30:02.974Z,81.4
2022-09-28T23:33:02.908Z,81.4
2022-09-28T23:36:02.945Z,81.4
2022-09-28T23:39:03.005Z,81.4
2022-09-28T23:42:02.897Z,81.4
2022-09-28T23:45:02.921Z,81.4
2022-09-28T23:48:02.978Z,81.4
2022-09-28T23:51:02.912Z,81.4
2022-09-28T23:54:02.944Z,81.4
2022-09-28T23:57:02.921Z,82
